createdAt,value
2018-01-23T00:00:44.304Z,95.10
2018-01-23T00:03:12.127Z,95.19
2018-01-23T00:05:39.674Z,95.26
2018-01-23T00:08:07.387Z,94.86
2018-01-23T00:10:34.897Z,95.37
2018-01-23T00:13:02.441Z,94.45
2018-01-23T00:15:30.111Z,93.80
2018-01-23T00:17:57.628Z,93.59
2018-01-23T00:20:25.131Z,93.43
2018-01-23T00:22:52.651Z,93.81
2018-01-23T00:25:20.166Z,94.98
2018-01-23T00:27:47.694Z,95.41
2018-01-23T00:30:15.210Z,96.61
2018-01-23T00:32:42.723Z,97.16
2018-01-23T00:35:10.256Z,97.75
2018-01-23T00:37:37.762Z,98.48
2018-01-23T00:40:05.279Z,98.52
2018-01-23T00:42:32.797Z,98.46
2018-01-23T00:45:00.333Z,98.22
2018-01-23T00:47:27.873Z,94.24
2018-01-23T00:49:55.402Z,93.67
2018-01-23T00:52:22.921Z,93.26
2018-01-23T00:54:50.454Z,93.71
2018-01-23T00:57:17.994Z,93.99
2018-01-23T00:59:45.625Z,94.16
2018-01-23T01:02:13.153Z,93.48
2018-01-23T01:04:40.678Z,92.82
2018-01-23T01:07:08.172Z,92.77
2018-01-23T01:09:35.685Z,93.63
2018-01-23T01:12:03.258Z,93.76
2018-01-23T01:14:30.771Z,95.13
2018-01-23T01:16:58.333Z,95.67
2018-01-23T01:19:25.871Z,95.41
2018-01-23T01:21:53.391Z,95.40
2018-01-23T01:24:20.912Z,95.60
2018-01-23T01:26:48.416Z,95.83
2018-01-23T01:29:15.939Z,96.25
2018-01-23T01:31:43.483Z,96.65
2018-01-23T01:34:11.111Z,97.00
2018-01-23T01:36:38.632Z,97.19
2018-01-23T01:39:06.139Z,96.75
2018-01-23T01:41:33.663Z,95.54
2018-01-23T01:44:01.192Z,94.62
2018-01-23T01:46:28.731Z,94.89
2018-01-23T01:48:56.246Z,94.92
2018-01-23T01:51:23.773Z,95.24
2018-01-23T01:53:51.276Z,95.36
2018-01-23T01:56:18.806Z,95.99
2018-01-23T01:58:46.351Z,96.88
2018-01-23T02:01:13.861Z,97.42
2018-01-23T02:03:41.497Z,97.80
2018-01-23T02:06:09.001Z,98.02
2018-01-23T02:08:36.508Z,98.31
2018-01-23T02:11:04.012Z,98.56
2018-01-23T02:13:31.512Z,98.42
2018-01-23T02:15:59.034Z,98.26
2018-01-23T02:18:26.552Z,97.96
2018-01-23T02:20:54.156Z,97.93
2018-01-23T02:23:21.671Z,98.24
2018-01-23T02:25:49.192Z,97.83
2018-01-23T02:28:16.716Z,96.81
2018-01-23T02:30:44.227Z,96.53
2018-01-23T02:33:11.758Z,96.02
2018-01-23T02:35:39.288Z,95.52
2018-01-23T02:38:06.815Z,95.26
2018-01-23T02:40:34.323Z,95.21
2018-01-23T02:43:01.838Z,95.41
2018-01-23T02:45:29.344Z,96.80
2018-01-23T02:47:56.853Z,95.52
2018-01-23T02:50:24.388Z,94.42
2018-01-23T02:52:51.912Z,95.09
2018-01-23T02:55:19.472Z,96.72
2018-01-23T02:57:46.989Z,96.34
2018-01-23T03:00:14.518Z,95.27
2018-01-23T03:02:42.028Z,95.49
2018-01-23T03:05:09.549Z,94.27
2018-01-23T03:07:37.080Z,93.60
2018-01-23T03:10:04.588Z,93.02
2018-01-23T03:12:32.108Z,93.25
2018-01-23T03:14:59.628Z,93.66
2018-01-23T03:17:27.132Z,94.72
2018-01-23T03:19:54.637Z,95.51
2018-01-23T03:22:22.139Z,94.55
2018-01-23T03:24:49.647Z,93.34
2018-01-23T03:27:17.156Z,92.69
2018-01-23T03:29:44.663Z,91.94
2018-01-23T03:32:12.174Z,90.98
2018-01-23T03:34:39.696Z,91.49
2018-01-23T03:37:11.053Z,90.49
2018-01-23T03:39:38.569Z,90.55
2018-01-23T03:42:06.086Z,91.14
2018-01-23T03:44:33.602Z,90.63
2018-01-23T03:47:01.142Z,91.50
2018-01-23T03:49:28.651Z,90.31
2018-01-23T03:51:56.159Z,90.71
2018-01-23T03:54:23.687Z,91.72
2018-01-23T03:56:51.211Z,91.39
2018-01-23T03:59:18.736Z,92.20
2018-01-23T04:01:46.257Z,92.39
2018-01-23T04:04:13.787Z,92.71
2018-01-23T04:06:41.298Z,92.57
2018-01-23T04:09:08.849Z,92.31
2018-01-23T04:11:36.419Z,90.87
2018-01-23T04:14:03.939Z,90.17
2018-01-23T04:16:31.452Z,89.44
2018-01-23T04:18:58.977Z,89.80
2018-01-23T04:21:26.501Z,90.03
2018-01-23T04:23:54.787Z,89.64
2018-01-23T04:26:22.312Z,89.92
2018-01-23T04:28:49.843Z,89.79
2018-01-23T04:31:17.362Z,90.18
2018-01-23T04:33:44.869Z,89.85
2018-01-23T04:36:12.387Z,90.23
2018-01-23T04:38:39.920Z,90.34
2018-01-23T04:41:07.432Z,90.15
2018-01-23T04:43:34.923Z,90.45
2018-01-23T04:46:02.438Z,91.72
2018-01-23T04:48:29.964Z,92.35
2018-01-23T04:50:57.489Z,92.59
2018-01-23T04:53:25.032Z,93.22
2018-01-23T04:55:52.544Z,93.32
2018-01-23T04:58:20.074Z,93.42
2018-01-23T05:00:47.592Z,92.81
2018-01-23T05:03:15.134Z,92.70
2018-01-23T05:05:42.687Z,92.27
2018-01-23T05:08:10.212Z,91.85
2018-01-23T05:10:37.742Z,92.20
2018-01-23T05:13:05.254Z,91.94
2018-01-23T05:15:32.783Z,91.49
2018-01-23T05:18:00.304Z,92.18
2018-01-23T05:20:27.833Z,90.38
2018-01-23T05:22:55.384Z,90.36
2018-01-23T05:25:22.908Z,91.23
2018-01-23T05:27:50.537Z,91.89
2018-01-23T05:30:18.070Z,92.65
2018-01-23T05:32:45.597Z,92.46
2018-01-23T05:35:13.114Z,92.25
2018-01-23T05:37:40.642Z,90.71
2018-01-23T05:40:08.167Z,92.32
2018-01-23T05:42:35.702Z,91.86
2018-01-23T05:45:03.224Z,90.25
2018-01-23T05:47:30.738Z,89.66
2018-01-23T05:49:58.259Z,88.54
2018-01-23T05:52:25.767Z,89.21
2018-01-23T05:54:53.279Z,89.25
2018-01-23T05:57:20.797Z,89.42
2018-01-23T05:59:48.313Z,90.06
2018-01-23T06:02:15.835Z,91.64
2018-01-23T06:04:43.342Z,92.05
2018-01-23T06:07:11.042Z,92.61
2018-01-23T06:09:38.578Z,92.31
2018-01-23T06:12:06.127Z,92.83
2018-01-23T06:14:33.813Z,93.17
2018-01-23T06:17:01.404Z,91.56
2018-01-23T06:19:28.920Z,91.26
2018-01-23T06:21:56.444Z,93.61
2018-01-23T06:24:23.972Z,93.90
2018-01-23T06:26:51.474Z,93.70
2018-01-23T06:29:19.004Z,93.53
2018-01-23T06:31:46.513Z,93.87
2018-01-23T06:34:14.015Z,94.12
2018-01-23T06:36:41.557Z,94.20
2018-01-23T06:39:09.064Z,93.96
2018-01-23T06:41:36.622Z,93.26
2018-01-23T06:44:04.124Z,93.40
2018-01-23T06:46:31.638Z,94.28
2018-01-23T06:48:59.177Z,93.94
2018-01-23T06:51:26.683Z,94.08
2018-01-23T06:53:54.192Z,94.38
2018-01-23T06:56:21.729Z,93.75
2018-01-23T06:58:49.277Z,93.67
2018-01-23T07:01:16.802Z,93.08
2018-01-23T07:03:44.314Z,93.13
2018-01-23T07:06:11.853Z,93.93
2018-01-23T07:08:39.354Z,95.44
2018-01-23T07:11:06.870Z,95.51
2018-01-23T07:13:34.399Z,95.67
2018-01-23T07:16:01.931Z,95.14
2018-01-23T07:18:29.465Z,94.70
2018-01-23T07:20:57.000Z,94.94
2018-01-23T07:23:24.768Z,95.48
2018-01-23T07:25:52.317Z,95.47
2018-01-23T07:28:19.832Z,94.71
2018-01-23T07:30:47.356Z,94.50
2018-01-23T07:33:14.875Z,93.80
2018-01-23T07:35:42.399Z,92.86
2018-01-23T07:38:10.023Z,91.69
2018-01-23T07:40:37.550Z,90.08
2018-01-23T07:43:05.063Z,89.38
2018-01-23T07:45:32.602Z,87.73
2018-01-23T07:48:00.134Z,86.64
2018-01-23T07:50:27.677Z,87.20
2018-01-23T07:52:55.199Z,87.84
2018-01-23T07:55:22.702Z,86.80
2018-01-23T07:57:50.583Z,87.75
2018-01-23T08:00:19.544Z,86.87
2018-01-23T08:02:47.070Z,86.79
2018-01-23T08:05:14.580Z,85.28
2018-01-23T08:07:42.100Z,86.16
2018-01-23T08:10:09.628Z,86.84
2018-01-23T08:12:37.153Z,86.87
2018-01-23T08:15:04.667Z,87.47
2018-01-23T08:17:32.172Z,87.15
2018-01-23T08:19:59.684Z,87.03
2018-01-23T08:22:27.194Z,86.15
2018-01-23T08:24:54.779Z,85.92
2018-01-23T08:27:22.293Z,87.76
2018-01-23T08:29:49.838Z,87.27
2018-01-23T08:32:17.352Z,87.29
2018-01-23T08:34:44.880Z,85.67
2018-01-23T08:37:12.398Z,86.48
2018-01-23T08:39:39.934Z,86.50
2018-01-23T08:42:07.458Z,86.18
2018-01-23T08:44:34.982Z,85.54
2018-01-23T08:47:02.500Z,84.66
2018-01-23T08:49:30.119Z,84.74
2018-01-23T08:51:57.642Z,84.65
2018-01-23T08:54:25.383Z,84.66
2018-01-23T08:56:52.910Z,84.22
2018-01-23T08:59:20.442Z,84.56
2018-01-23T09:01:47.969Z,83.36
2018-01-23T09:04:15.597Z,82.48
2018-01-23T09:06:51.659Z,82.92
2018-01-23T09:09:19.158Z,83.72
2018-01-23T09:11:46.683Z,82.71
2018-01-23T09:14:14.194Z,82.84
2018-01-23T09:16:41.709Z,83.85
2018-01-23T09:19:09.219Z,83.84
2018-01-23T09:21:36.700Z,83.20
2018-01-23T09:24:04.218Z,82.92
2018-01-23T09:26:31.735Z,82.68
2018-01-23T09:28:59.243Z,81.73
2018-01-23T09:31:26.769Z,82.38
2018-01-23T09:33:54.265Z,81.66
2018-01-23T09:36:21.789Z,82.30
2018-01-23T09:38:49.324Z,82.45
2018-01-23T09:41:16.899Z,81.28
2018-01-23T09:43:44.424Z,81.42
2018-01-23T09:46:11.939Z,81.72
2018-01-23T09:48:39.577Z,82.24
2018-01-23T09:51:07.089Z,81.11
2018-01-23T09:53:34.609Z,81.37
2018-01-23T09:56:02.108Z,81.93
2018-01-23T09:58:29.634Z,81.49
2018-01-23T10:00:57.150Z,81.24
2018-01-23T10:03:24.685Z,82.03
2018-01-23T10:05:52.209Z,81.43
2018-01-23T10:08:19.748Z,80.75
2018-01-23T10:10:47.273Z,81.17
2018-01-23T10:13:14.802Z,80.59
2018-01-23T10:15:42.308Z,81.05
2018-01-23T10:18:09.825Z,80.21
2018-01-23T10:20:37.352Z,80.33
2018-01-23T10:23:04.874Z,79.20
2018-01-23T10:25:32.379Z,79.48
2018-01-23T10:27:59.897Z,77.67
2018-01-23T10:30:27.414Z,78.01
2018-01-23T10:32:54.980Z,78.58
2018-01-23T10:35:22.522Z,76.49
2018-01-23T10:37:50.038Z,76.00
2018-01-23T10:40:17.569Z,75.00
2018-01-23T10:42:45.085Z,75.06
2018-01-23T10:45:12.623Z,75.62
2018-01-23T10:47:40.153Z,74.62
2018-01-23T10:50:07.669Z,73.87
2018-01-23T10:52:35.189Z,74.87
2018-01-23T10:55:02.705Z,73.59
2018-01-23T10:57:30.429Z,74.84
2018-01-23T10:59:57.944Z,74.79
2018-01-23T11:02:25.478Z,73.14
2018-01-23T11:04:53.014Z,73.15
2018-01-23T11:07:20.508Z,72.78
2018-01-23T11:09:48.074Z,73.50
2018-01-23T11:12:15.589Z,71.88
2018-01-23T11:14:43.134Z,71.89
2018-01-23T11:17:10.648Z,71.67
2018-01-23T11:19:38.173Z,73.81
2018-01-23T11:22:05.697Z,72.01
2018-01-23T11:24:33.604Z,71.36
2018-01-23T11:27:01.138Z,70.43
2018-01-23T11:29:28.679Z,70.46
2018-01-23T11:31:56.200Z,73.05
2018-01-23T11:34:23.728Z,71.61
2018-01-23T11:36:51.244Z,71.56
2018-01-23T11:39:18.801Z,69.95
2018-01-23T11:41:46.273Z,69.71
2018-01-23T11:44:13.767Z,66.88
2018-01-23T11:46:41.315Z,64.58
2018-01-23T11:49:08.848Z,59.57
2018-01-23T11:51:36.395Z,60.38
2018-01-23T11:54:03.915Z,56.23
2018-01-23T11:56:31.454Z,55.14
2018-01-23T11:58:58.984Z,51.97
2018-01-23T12:01:26.520Z,52.57
2018-01-23T12:03:54.110Z,47.38
2018-01-23T12:06:21.655Z,48.45
2018-01-23T12:08:49.182Z,50.10
2018-01-23T12:11:16.786Z,52.05
2018-01-23T12:13:44.319Z,53.91
2018-01-23T12:16:11.828Z,50.44
2018-01-23T12:18:39.334Z,52.91
2018-01-23T12:21:06.883Z,52.87
2018-01-23T12:23:34.402Z,60.08
2018-01-23T12:26:01.929Z,57.29
2018-01-23T12:28:29.479Z,54.24
2018-01-23T12:30:56.980Z,50.97
2018-01-23T12:33:24.500Z,47.69
2018-01-23T12:35:52.015Z,49.44
2018-01-23T12:38:19.524Z,46.48
2018-01-23T12:40:47.061Z,50.26
2018-01-23T12:43:14.602Z,53.07
2018-01-23T12:45:42.134Z,54.86
2018-01-23T12:48:09.659Z,57.29
2018-01-23T12:50:37.174Z,58.98
2018-01-23T12:53:04.712Z,61.69
2018-01-23T12:55:32.223Z,63.36
2018-01-23T12:57:59.755Z,65.91
2018-01-23T13:00:27.303Z,66.89
2018-01-23T13:02:54.849Z,66.52
2018-01-23T13:05:22.445Z,68.90
2018-01-23T13:07:49.958Z,69.15
2018-01-23T13:10:17.479Z,68.88
2018-01-23T13:12:45.024Z,69.91
2018-01-23T13:15:12.574Z,70.11
2018-01-23T13:17:40.106Z,70.20
2018-01-23T13:20:07.620Z,70.87
2018-01-23T13:22:35.131Z,71.29
2018-01-23T13:25:02.669Z,70.67
2018-01-23T13:27:30.186Z,69.86
2018-01-23T13:29:57.709Z,71.00
2018-01-23T13:32:25.217Z,70.37
2018-01-23T13:34:52.719Z,69.84
2018-01-23T13:37:20.219Z,69.93
2018-01-23T13:39:47.734Z,70.97
2018-01-23T13:42:15.245Z,71.57
2018-01-23T13:44:42.757Z,72.33
2018-01-23T13:47:10.279Z,71.16
2018-01-23T13:49:37.800Z,71.26
2018-01-23T13:52:05.329Z,71.23
2018-01-23T13:54:32.840Z,69.62
2018-01-23T13:57:00.345Z,71.76
2018-01-23T13:59:27.854Z,70.96
2018-01-23T14:01:55.389Z,70.36
2018-01-23T14:04:22.904Z,70.81
2018-01-23T14:06:50.444Z,70.22
2018-01-23T14:09:17.964Z,69.69
2018-01-23T14:11:45.475Z,67.34
2018-01-23T14:14:12.990Z,68.66
2018-01-23T14:16:40.669Z,67.62
2018-01-23T14:19:08.189Z,67.70
2018-01-23T14:21:35.722Z,69.01
2018-01-23T14:24:03.243Z,69.12
2018-01-23T14:26:30.810Z,69.63
2018-01-23T14:28:58.382Z,69.44
2018-01-23T14:31:25.944Z,69.24
2018-01-23T14:33:53.482Z,69.37
2018-01-23T14:36:20.996Z,70.85
2018-01-23T14:38:48.513Z,68.47
2018-01-23T14:41:16.043Z,68.37
2018-01-23T14:43:43.588Z,67.88
2018-01-23T14:46:11.121Z,68.21
2018-01-23T14:48:38.676Z,65.85
2018-01-23T14:51:06.179Z,67.54
2018-01-23T14:53:33.718Z,68.28
2018-01-23T14:56:01.251Z,69.41
2018-01-23T14:58:28.758Z,68.87
2018-01-23T15:00:56.405Z,69.47
2018-01-23T15:03:23.942Z,70.94
2018-01-23T15:05:51.706Z,71.19
2018-01-23T15:08:19.242Z,71.67
2018-01-23T15:10:46.879Z,69.39
2018-01-23T15:13:14.419Z,69.20
2018-01-23T15:15:41.933Z,69.40
2018-01-23T15:18:09.470Z,71.09
2018-01-23T15:20:36.998Z,71.88
2018-01-23T15:23:04.534Z,72.75
2018-01-23T15:25:32.056Z,73.15
2018-01-23T15:27:59.596Z,72.83
2018-01-23T15:30:27.175Z,73.53
2018-01-23T15:32:54.705Z,73.02
2018-01-23T15:35:22.277Z,73.22
2018-01-23T15:37:49.788Z,74.62
2018-01-23T15:40:17.338Z,74.19
2018-01-23T15:42:44.852Z,74.69
2018-01-23T15:45:12.375Z,75.31
2018-01-23T15:47:39.915Z,74.58
2018-01-23T15:50:07.459Z,74.92
2018-01-23T15:52:34.966Z,75.55
2018-01-23T15:55:02.484Z,75.54
2018-01-23T15:57:30.031Z,75.75
2018-01-23T15:59:57.569Z,75.98
2018-01-23T16:02:25.086Z,76.67
2018-01-23T16:04:52.605Z,78.18
2018-01-23T16:07:20.234Z,78.78
2018-01-23T16:09:47.793Z,80.69
2018-01-23T16:12:15.315Z,76.64
2018-01-23T16:14:42.861Z,81.63
2018-01-23T16:17:10.369Z,79.66
2018-01-23T16:19:37.908Z,77.66
2018-01-23T16:22:05.430Z,77.09
2018-01-23T16:24:32.937Z,78.05
2018-01-23T16:27:00.454Z,78.77
2018-01-23T16:29:27.974Z,79.59
2018-01-23T16:31:55.498Z,78.90
2018-01-23T16:34:22.999Z,76.99
2018-01-23T16:36:50.521Z,76.21
2018-01-23T16:39:18.055Z,76.54
2018-01-23T16:41:45.593Z,75.95
2018-01-23T16:44:13.129Z,76.98
2018-01-23T16:46:40.670Z,79.51
2018-01-23T16:49:08.330Z,80.69
2018-01-23T16:51:35.850Z,81.07
2018-01-23T16:54:03.395Z,81.57
2018-01-23T16:56:30.996Z,80.55
2018-01-23T16:58:58.530Z,79.55
2018-01-23T17:01:26.070Z,75.27
2018-01-23T17:03:53.620Z,77.62
2018-01-23T17:06:21.143Z,75.63
2018-01-23T17:08:48.681Z,75.63
2018-01-23T17:11:16.214Z,74.85
2018-01-23T17:13:43.760Z,76.52
2018-01-23T17:16:11.281Z,75.36
2018-01-23T17:18:38.796Z,75.91
2018-01-23T17:21:06.326Z,73.32
2018-01-23T17:23:33.854Z,77.43
2018-01-23T17:26:01.365Z,75.83
2018-01-23T17:28:29.284Z,74.99
2018-01-23T17:30:57.241Z,74.70
2018-01-23T17:33:25.220Z,73.26
2018-01-23T17:35:53.180Z,78.76
2018-01-23T17:38:21.050Z,78.70
2018-01-23T17:40:49.016Z,76.53
2018-01-23T17:43:16.991Z,75.70
2018-01-23T17:45:44.827Z,74.07
2018-01-23T17:48:12.829Z,77.87
2018-01-23T17:50:40.690Z,77.00
2018-01-23T17:53:08.560Z,79.12
2018-01-23T17:55:36.525Z,80.30
2018-01-23T17:58:04.387Z,80.47
2018-01-23T18:00:36.154Z,79.97
2018-01-23T18:03:04.125Z,78.92
2018-01-23T18:05:31.985Z,81.47
2018-01-23T18:07:59.853Z,82.06
2018-01-23T18:10:27.721Z,82.92
2018-01-23T18:12:55.589Z,82.69
2018-01-23T18:15:23.314Z,84.75
2018-01-23T18:17:51.001Z,85.45
2018-01-23T18:20:18.611Z,86.57
2018-01-23T18:22:46.156Z,86.74
2018-01-23T18:25:13.684Z,86.40
2018-01-23T18:27:41.198Z,85.24
2018-01-23T18:30:08.746Z,87.21
2018-01-23T18:32:36.294Z,87.97
2018-01-23T18:35:03.865Z,88.34
2018-01-23T18:37:31.419Z,89.58
2018-01-23T18:39:58.962Z,89.68
2018-01-23T18:42:26.499Z,89.37
2018-01-23T18:44:54.152Z,89.61
2018-01-23T18:47:22.036Z,90.42
2018-01-23T18:49:49.691Z,90.87
2018-01-23T18:52:17.508Z,91.42
2018-01-23T18:54:45.534Z,91.44
2018-01-23T18:57:13.491Z,92.05
2018-01-23T18:59:41.339Z,91.99
2018-01-23T19:02:09.125Z,92.17
2018-01-23T19:04:36.996Z,92.97
2018-01-23T19:07:04.965Z,93.08
2018-01-23T19:09:32.830Z,93.17
2018-01-23T19:12:00.695Z,93.50
2018-01-23T19:14:28.531Z,93.95
2018-01-23T19:16:56.429Z,93.85
2018-01-23T19:19:24.297Z,94.05
2018-01-23T19:21:52.171Z,94.11
2018-01-23T19:24:19.901Z,93.57
2018-01-23T19:26:47.464Z,93.84
2018-01-23T19:29:15.011Z,93.55
2018-01-23T19:31:42.554Z,94.23
2018-01-23T19:34:10.076Z,94.62
2018-01-23T19:36:37.595Z,94.91
2018-01-23T19:39:05.127Z,94.94
2018-01-23T19:41:32.651Z,95.32
2018-01-23T19:44:00.205Z,95.73
2018-01-23T19:46:27.770Z,95.76
2018-01-23T19:48:55.321Z,95.82
2018-01-23T19:51:22.875Z,95.76
2018-01-23T19:53:50.442Z,95.07
2018-01-23T19:56:17.975Z,94.62
2018-01-23T19:58:45.491Z,94.35
2018-01-23T20:01:13.139Z,94.50
2018-01-23T20:03:40.679Z,94.92
2018-01-23T20:06:08.367Z,95.38
2018-01-23T20:08:35.891Z,95.89
2018-01-23T20:11:03.431Z,95.70
2018-01-23T20:13:31.194Z,96.00
2018-01-23T20:15:58.730Z,96.22
2018-01-23T20:18:26.290Z,95.75
2018-01-23T20:20:53.804Z,95.49
2018-01-23T20:23:21.361Z,95.03
2018-01-23T20:25:48.895Z,94.84
2018-01-23T20:28:16.421Z,94.81
2018-01-23T20:30:43.954Z,94.54
2018-01-23T20:33:11.505Z,94.65
2018-01-23T20:35:39.065Z,94.41
2018-01-23T20:38:06.620Z,94.86
2018-01-23T20:40:34.266Z,94.63
2018-01-23T20:43:01.794Z,93.85
2018-01-23T20:45:29.375Z,94.49
2018-01-23T20:47:56.909Z,95.24
2018-01-23T20:50:24.461Z,95.24
2018-01-23T20:52:52.004Z,95.58
2018-01-23T20:55:19.540Z,95.78
2018-01-23T20:57:47.091Z,95.97
2018-01-23T21:00:14.640Z,95.86
2018-01-23T21:02:42.511Z,96.32
2018-01-23T21:05:10.040Z,96.41
2018-01-23T21:07:37.585Z,95.88
2018-01-23T21:10:05.159Z,95.29
2018-01-23T21:12:32.664Z,94.79
2018-01-23T21:15:00.273Z,94.87
2018-01-23T21:17:27.802Z,95.34
2018-01-23T21:19:55.325Z,95.60
2018-01-23T21:22:22.854Z,95.90
2018-01-23T21:24:50.369Z,95.75
2018-01-23T21:27:17.902Z,95.60
2018-01-23T21:29:45.418Z,95.78
2018-01-23T21:32:12.950Z,95.98
2018-01-23T21:34:40.571Z,96.07
2018-01-23T21:37:08.116Z,95.51
2018-01-23T21:39:35.775Z,95.22
2018-01-23T21:42:03.323Z,95.48
2018-01-23T21:44:30.850Z,95.84
2018-01-23T21:46:58.381Z,96.11
2018-01-23T21:49:25.905Z,95.83
2018-01-23T21:51:53.411Z,95.08
2018-01-23T21:54:20.973Z,94.69
2018-01-23T21:56:48.506Z,94.32
2018-01-23T21:59:16.059Z,94.70
2018-01-23T22:01:43.590Z,94.41
2018-01-23T22:04:11.100Z,94.18
2018-01-23T22:06:38.845Z,93.98
2018-01-23T22:09:06.385Z,93.54
2018-01-23T22:11:33.911Z,93.57
2018-01-23T22:14:01.455Z,93.76
2018-01-23T22:16:28.979Z,93.76
2018-01-23T22:18:56.474Z,93.97
2018-01-23T22:21:23.985Z,93.30
2018-01-23T22:23:51.495Z,93.21
2018-01-23T22:26:19.135Z,92.48
2018-01-23T22:28:46.671Z,92.15
2018-01-23T22:31:14.190Z,92.12
2018-01-23T22:33:41.744Z,91.91
2018-01-23T22:36:09.270Z,91.64
2018-01-23T22:38:36.796Z,91.87
2018-01-23T22:41:04.316Z,91.57
2018-01-23T22:43:31.851Z,90.92
2018-01-23T22:45:59.421Z,90.98
2018-01-23T22:48:26.954Z,91.77
2018-01-23T22:50:54.478Z,92.11
2018-01-23T22:53:22.004Z,90.98
2018-01-23T22:55:49.721Z,90.66
2018-01-23T22:58:17.384Z,88.99
2018-01-23T23:00:44.886Z,88.02
2018-01-23T23:03:12.410Z,90.60
2018-01-23T23:05:39.919Z,90.19
2018-01-23T23:08:07.474Z,88.10
2018-01-23T23:10:35.010Z,88.45
2018-01-23T23:13:02.530Z,88.80
2018-01-23T23:15:30.035Z,88.74
2018-01-23T23:17:57.556Z,88.37
2018-01-23T23:20:25.075Z,90.39
2018-01-23T23:22:52.586Z,89.87
2018-01-23T23:25:20.108Z,89.73
2018-01-23T23:27:47.636Z,90.17
2018-01-23T23:30:15.160Z,82.53
2018-01-23T23:32:42.701Z,82.09
2018-01-23T23:35:10.211Z,81.55
2018-01-23T23:37:37.724Z,81.91
2018-01-23T23:40:05.279Z,82.03
2018-01-23T23:42:32.820Z,82.28
2018-01-23T23:45:00.334Z,83.05
2018-01-23T23:47:27.846Z,82.39
2018-01-23T23:49:55.379Z,82.31
2018-01-23T23:52:23.896Z,82.79
2018-01-23T23:54:51.399Z,83.32
2018-01-23T23:57:18.921Z,83.42
2018-01-23T23:59:46.441Z,81.83
